Αρχική σελίδα
METAR-TAF:

METAR-TAF

Αεροδρόμια :

Διεθνές Αεροδρόμιο του Μπαχρέιν

Μπαχρέιν, Μπαχρέιν

γεωγραφικό πλάτος: 26-16N, γεωγραφικό μήκος: 050-39E, υψόμετρο: 2 μ

Παρών καιρός

Η αναφορά έγινε 15 λεπτά πριν, στις 00:00 UTC
Άνεμος 13 kt από Δ/BΔ
Θερμοκρασία 20°C
Υγρασία 73%
Πίεση 1020 hPa
Ορατότητα 10 χλμ και άνω
Δεν υπάρχουν νέφη με βάση κάτω από τα 1500 μ. και δεν υπάρχουν νέφη σωρειτομελανίτες.

METAR: OBBI 120000Z 30013KT CAVOK 20/15 Q1020 NOSIG

Χρόνος: 03:15 (00:15 UTC)

Πρόγνωση Καιρού

Η αναφορά έγινε 1 ώρα και 15 λεπτά πριν, στις 23:00 UTC
Η πρόγνωση ισχύει από τις 12 στις 00 UTC έως τις 13 στις 06 UTC
Άνεμος 15 kt από Β/BΔ
Ορατότητα 10 χλμ και άνω
Δεν υπάρχουν νέφη με βάση κάτω από τα 1500 μ. και δεν υπάρχουν νέφη σωρειτομελανίτες.

TAF: OBBI 112300Z 1200/1306 34015KT CAVOK

Μετεωρολογικές αναφορές και προγνώσεις για περισσότερα από 4000 αεροδρόμια (δελτία METAR και TAF).

Οι διαθέσιμοι σταθμοί απεικονίζονται στο χάρτη με κίτρινες και κόκκινες κουκκίδες.

Μετακινήστε το ποντίκι πάνω από τις κουκκίδες για να δείτε το όνομα του σταθμού.

Στη συνέχεια, κάντε κλικ για να δείτε τις μετεωρολογικές αναφορές και τις προγνώσεις καιρού.

Για να αλλάξετε το χάρτη: κάντε κλικ στα πράσινα κουμπιά με τον μαύρο σταυρό για να ζουμάρετε, στο πράσινο κουμπί με την παύλα για να αφαιρέσετε το ζουμ ή στα πράσινα βέλη για να αντιπαραβάλλετε χάρτες.


METAR-TAF: